Flight Track Log - Related Links

Times and Time Zones

All times are in EDT time to prevent confusion due to time zone crossing. See the AAY862 flight status page for this flight to view local times or setup timezone preferences in your user account.

Time Position Orientation Groundspeed Altitude Reporting Facility
EDT Latitude Longitude Course Direction KTS MPH feet Rate Location/Type
Tue 02:03:39 PM 27.9333 -82.7000 331° Northwest 172 198 900  Level Tampa TRACON
Tue 02:04:39 PM 27.9833 -82.6833 16° North 240 276 1,700 2,000 Climbing Tampa TRACON
Tue 02:05:39 PM 28.0500 -82.6833 360° North 285 328 4,900 2,962 Climbing Tampa TRACON
Tue 02:07:15 PM 28.1678 -82.7253 343° North 278 320 9,400 2,519 Climbing Miami Center
Tue 02:08:21 PM 28.2625 -82.7631 341° North 291 335 11,700 1,810 Climbing Jacksonville Center
Tue 02:09:00 PM 28.4911 -83.0430 331° Northwest  Level FlightAware Approximate
Tue 02:09:21 PM 28.3606 -82.7983 342° North 325 374 13,200  Level Jacksonville Center
Tue 02:10:21 PM 28.4672 -82.8383 342° North 368 423 15,600 2,300 Climbing Jacksonville Center
Tue 02:11:21 PM 28.5778 -82.8783 342° North 399 459 17,800 1,850 Climbing Jacksonville Center
Tue 02:12:21 PM 28.6675 -82.9139 341° North 411 473 19,300 1,750 Climbing Jacksonville Center
Tue 02:13:21 PM 28.7928 -82.9589 343° North 423 487 21,300 1,700 Climbing Jacksonville Center
Tue 02:14:21 PM 28.9117 -83.0017 343° North 435 501 22,700 1,537 Climbing Jacksonville Center
Tue 02:15:22 PM 29.0306 -83.0469 342° North 442 509 24,400 1,600 Climbing Jacksonville Center
Tue 02:16:21 PM 29.1472 -83.1114 334° Northwest 448 516 25,900 1,815 Climbing Jacksonville Center
Tue 02:17:21 PM 29.2600 -83.1783 333° Northwest 454 522 28,000 2,050 Climbing Jacksonville Center
Tue 02:18:21 PM 29.3703 -83.2428 333° Northwest 454 522 30,000 1,600 Climbing Jacksonville Center
Tue 02:19:21 PM 29.4789 -83.3100 332° Northwest 449 517 31,200 1,200 Climbing Jacksonville Center
Tue 02:20:21 PM 29.5850 -83.3725 333° Northwest 444 511 32,400 1,150 Climbing Jacksonville Center
Tue 02:21:21 PM 29.6933 -83.4353 333° Northwest 439 505 33,500 800 Climbing Jacksonville Center
Tue 02:22:21 PM 29.8100 -83.5031 333° Northwest 428 493 34,000 200 Climbing Jacksonville Center
Tue 02:23:21 PM 29.9203 -83.5661 334° Northwest 428 493 33,900 -50 Descending Jacksonville Center
Tue 02:24:21 PM 30.0283 -83.6292 333° Northwest 434 499 33,900  Level Jacksonville Center
Tue 02:25:22 PM 30.1367 -83.6947 332° Northwest 429 494 33,900  Level Jacksonville Center
Tue 02:26:21 PM 30.2469 -83.7583 334° Northwest 429 494 33,900  Level Jacksonville Center
Tue 02:27:21 PM 30.3550 -83.8242 332° Northwest 429 494 33,900  Level Jacksonville Center
Tue 02:28:22 PM 30.4631 -83.8878 333° Northwest 429 494 33,900 50 Level Jacksonville Center
Tue 02:29:21 PM 30.5586 -83.9444 333° Northwest 424 488 34,000 50 Climbing Jacksonville Center
Tue 02:30:22 PM 30.6644 -84.0108 332° Northwest 424 488 34,000  Level Jacksonville Center
Tue 02:31:22 PM 30.7747 -84.0750 333° Northwest 424 488 34,000  Level Jacksonville Center
Tue 02:32:21 PM 30.8825 -84.1417 332° Northwest 430 495 34,000  Level Jacksonville Center
Tue 02:33:21 PM 30.9883 -84.2061 332° Northwest 430 495 34,000  Level Jacksonville Center
Tue 02:35:15 PM 31.2017 -84.3350 333° Northwest 430 495 34,000  Level Atlanta Center
Tue 02:36:15 PM 31.3058 -84.3986 332° Northwest 430 495 34,000  Level Atlanta Center
Tue 02:37:15 PM 31.3994 -84.4572 332° Northwest 425 489 34,000  Level Atlanta Center
Tue 02:38:15 PM 31.5056 -84.5236 332° Northwest 425 489 34,000  Level Atlanta Center
Tue 02:39:15 PM 31.6119 -84.5875 333° Northwest 425 489 34,000  Level Atlanta Center
Tue 02:40:15 PM 31.7222 -84.6567 332° Northwest 430 495 34,000  Level Atlanta Center
Tue 02:41:15 PM 31.8283 -84.7208 333° Northwest 430 495 34,000  Level Atlanta Center
Tue 02:42:15 PM 31.9322 -84.7853 332° Northwest 430 495 34,000  Level Atlanta Center
Tue 02:43:15 PM 32.0403 -84.8522 332° Northwest 430 495 34,000  Level Atlanta Center
Tue 02:44:15 PM 32.1483 -84.9194 332° Northwest 430 495 34,000  Level Atlanta Center
Tue 02:45:15 PM 32.2544 -84.9844 333° Northwest 430 495 34,000  Level Atlanta Center
Tue 02:46:15 PM 32.3603 -85.0469 333° Northwest 425 489 34,000  Level Atlanta Center
Tue 02:47:15 PM 32.4683 -85.1147 332° Northwest 430 495 34,000  Level Atlanta Center
Tue 02:48:15 PM 32.5742 -85.1800 333° Northwest 425 489 34,000  Level Atlanta Center
Tue 02:49:15 PM 32.6842 -85.2481 332° Northwest 431 496 34,000  Level Atlanta Center
Tue 02:50:15 PM 32.8044 -85.3264 331° Northwest 438 504 34,000  Level Atlanta Center
Tue 02:51:15 PM 32.9061 -85.3922 331° Northwest 433 498 34,000  Level Atlanta Center
Tue 02:52:15 PM 33.0117 -85.4583 332° Northwest 428 493 34,000  Level Atlanta Center
Tue 02:53:15 PM 33.1194 -85.5269 332° Northwest 428 493 34,000  Level Atlanta Center
Tue 02:54:15 PM 33.2189 -85.5908 332° Northwest 428 493 34,000  Level Atlanta Center
Tue 02:55:15 PM 33.3244 -85.6547 333° Northwest 428 493 34,000  Level Atlanta Center
Tue 02:56:15 PM 33.4258 -85.7214 331° Northwest 423 487 34,000  Level Atlanta Center
Tue 02:57:15 PM 33.5314 -85.7931 330° Northwest 428 493 34,000  Level Atlanta Center
Tue 02:58:15 PM 33.6244 -85.8500 333° Northwest 428 493 34,000  Level Atlanta Center
Tue 02:59:15 PM 33.7278 -85.9147 332° Northwest 422 486 34,000  Level Atlanta Center
Tue 03:00:15 PM 33.8289 -85.9844 330° Northwest 417 480 34,000  Level Atlanta Center
Tue 03:01:15 PM 33.9322 -86.0517 332° Northwest 417 480 34,000  Level Atlanta Center
Tue 03:02:15 PM 34.0375 -86.1194 332° Northwest 417 480 34,000  Level Atlanta Center
Tue 03:03:15 PM 34.1367 -86.1847 331° Northwest 412 474 34,000  Level Atlanta Center
Tue 03:04:15 PM 34.2419 -86.2525 332° Northwest 412 474 34,000  Level Atlanta Center
Tue 03:05:15 PM 34.3431 -86.3181 332° Northwest 412 474 34,000  Level Atlanta Center
Tue 03:06:14 PM 34.4383 -86.3861 330° Northwest 420 483 34,000  Level Memphis Center
Tue 03:07:16 PM 34.5408 -86.4533 332° Northwest 420 483 34,000  Level Memphis Center
Tue 03:08:18 PM 34.6644 -86.5347 332° Northwest 420 483 34,000  Level Memphis Center
Tue 03:09:20 PM 34.7658 -86.6025 331° Northwest 421 484 34,000  Level Memphis Center
Tue 03:10:22 PM 34.8672 -86.6697 331° Northwest 420 483 34,000  Level Memphis Center
Tue 03:11:24 PM 34.9694 -86.7383 331° Northwest 420 483 34,000  Level Memphis Center
Tue 03:12:26 PM 35.0733 -86.8081 331° Northwest 422 486 34,000  Level Memphis Center
Tue 03:13:28 PM 35.1975 -86.8925 331° Northwest 424 488 34,000  Level Memphis Center
Tue 03:14:30 PM 35.3008 -86.9625 331° Northwest 424 488 34,000  Level Memphis Center
Tue 03:15:32 PM 35.4069 -87.0361 331° Northwest 425 489 34,000  Level Memphis Center
Tue 03:16:35 PM 35.5108 -87.1069 331° Northwest 425 489 34,000  Level Memphis Center
Tue 03:17:37 PM 35.6158 -87.1778 331° Northwest 425 489 34,000  Level Memphis Center
Tue 03:18:39 PM 35.7200 -87.2500 331° Northwest 425 489 34,000  Level Memphis Center
Tue 03:19:41 PM 35.8244 -87.3206 331° Northwest 424 488 34,000  Level Memphis Center
Tue 03:20:43 PM 35.9475 -87.4067 330° Northwest 425 489 34,000  Level Memphis Center
Tue 03:21:45 PM 36.0522 -87.4792 331° Northwest 425 489 34,000  Level Memphis Center
Tue 03:22:47 PM 36.1564 -87.5542 330° Northwest 426 490 34,000  Level Memphis Center
Tue 03:23:49 PM 36.2400 -87.6644 313° West 435 501 34,000  Level Memphis Center
Tue 03:24:51 PM 36.3181 -87.7786 310° West 434 499 34,000  Level Memphis Center
Tue 03:25:53 PM 36.4003 -87.8889 313° West 433 498 34,000  Level Memphis Center
Tue 03:26:55 PM 36.5106 -87.9556 334° Northwest 435 501 34,000  Level Memphis Center
Tue 03:27:57 PM 36.6194 -88.0253 333° Northwest 433 498 34,000  Level Memphis Center
Tue 03:28:59 PM 36.7272 -88.0947 333° Northwest 433 498 34,000  Level Memphis Center
Tue 03:30:02 PM 36.8347 -88.1639 333° Northwest 433 498 34,000  Level Memphis Center
Tue 03:31:04 PM 36.9622 -88.2464 333° Northwest 433 498 34,000  Level Memphis Center
Tue 03:32:06 PM 37.0681 -88.3167 332° Northwest 432 497 34,000  Level Memphis Center
Tue 03:33:08 PM 37.1744 -88.3850 333° Northwest 432 497 34,000  Level Memphis Center
Tue 03:34:10 PM 37.2806 -88.4547 332° Northwest 431 496 34,000  Level Memphis Center
Tue 03:35:12 PM 37.3872 -88.5239 333° Northwest 432 497 34,000  Level Memphis Center
Tue 03:36:14 PM 37.5150 -88.6106 332° Northwest 432 497 34,000  Level Memphis Center
Tue 03:37:16 PM 37.6225 -88.6797 333° Northwest 432 497 34,000  Level Memphis Center
Tue 03:37:55 PM 37.6869 -88.7228 332° Northwest 434 499 34,000  Level Kansas City Center
Tue 03:38:59 PM 37.8078 -88.8056 332° Northwest 440 506 34,000  Level Kansas City Center
Tue 03:40:00 PM 37.9083 -88.8714 333° Northwest 439 505 34,000  Level Kansas City Center
Tue 03:41:03 PM 38.0156 -88.9419 333° Northwest 439 505 34,000  Level Kansas City Center
Tue 03:42:05 PM 38.1231 -89.0153 332° Northwest 438 504 34,000  Level Kansas City Center
Tue 03:43:06 PM 38.2322 -89.0889 332° Northwest 437 503 34,000  Level Kansas City Center
Tue 03:44:09 PM 38.3378 -89.1603 332° Northwest 439 505 34,000  Level Kansas City Center
Tue 03:45:10 PM 38.4600 -89.2411 333° Northwest 440 506 34,000  Level Kansas City Center
Tue 03:46:13 PM 38.5875 -89.3303 331° Northwest 438 504 34,000  Level Kansas City Center
Tue 03:47:14 PM 38.6964 -89.4044 332° Northwest 438 504 34,000  Level Kansas City Center
Tue 03:48:17 PM 38.8036 -89.4769 332° Northwest 438 504 34,000  Level Kansas City Center
Tue 03:49:18 PM 38.9125 -89.5508 332° Northwest 438 504 34,000  Level Kansas City Center
Tue 03:50:21 PM 39.0206 -89.6272 331° Northwest 438 504 34,000  Level Kansas City Center
Tue 03:51:22 PM 39.1275 -89.7028 331° Northwest 438 504 34,000  Level Kansas City Center
Tue 03:52:26 PM 39.2375 -89.7778 332° Northwest 440 506 34,000  Level Kansas City Center
Tue 03:53:27 PM 39.3439 -89.8522 332° Northwest 440 506 34,000  Level Kansas City Center
Tue 03:54:30 PM 39.4722 -89.9422 332° Northwest 440 506 34,000  Level Kansas City Center
Tue 03:55:32 PM 39.5775 -90.0161 332° Northwest 439 505 34,000  Level Kansas City Center
Tue 03:56:33 PM 39.6839 -90.0911 332° Northwest 438 504 34,000  Level Kansas City Center
Tue 03:57:36 PM 39.7922 -90.1700 331° Northwest 438 504 34,000 -581 Level Kansas City Center
Tue 03:58:37 PM 39.8994 -90.2453 332° Northwest 438 504 32,800 -1,510 Descending Kansas City Center
Tue 04:00:11 PM 40.0694 -90.3681 331° Northwest 436 502 30,100 -1,839 Descending Chicago Center
Tue 04:00:41 PM 40.1350 -90.4164 331° Northwest 438 504 29,000 -1,355 Descending Kansas City Center
Tue 04:01:44 PM 40.2444 -90.4931 332° Northwest 439 505 28,000 -484 Descending Kansas City Center
Tue 04:02:45 PM 40.3536 -90.5717 331° Northwest 442 509 28,000  Level Kansas City Center
Tue 04:03:18 PM 40.3986 -90.6053 330° Northwest 448 516 28,000  Level Chicago Center
Tue 04:04:20 PM 40.5292 -90.6997 331° Northwest 447 514 28,000 -48 Level Chicago Center
Tue 04:05:22 PM 40.6567 -90.7186 354° North 468 539 27,900 -1,306 Descending Chicago Center
Tue 04:06:24 PM 40.7894 -90.7081 North 473 544 25,300 -2,177 Descending Chicago Center
Tue 04:07:26 PM 40.9100 -90.7489 346° North 447 514 23,400 -1,597 Descending Chicago Center
Tue 04:08:28 PM 41.0083 -90.8403 325° Northwest 437 503 22,000 -677 Descending Chicago Center
Tue 04:09:30 PM 41.0947 -90.9258 323° Northwest 405 466 22,000 -629 Level Chicago Center
Tue 04:10:32 PM 41.1953 -91.0256 323° Northwest 382 440 20,700 -1,790 Descending Chicago Center
Tue 04:11:34 PM 41.2858 -91.1136 324° Northwest 397 457 18,300 -2,400 Descending Chicago Center
Tue 04:12:37 PM 41.3744 -91.2008 324° Northwest 398 458 15,700 -2,496 Descending Chicago Center
Tue 04:13:39 PM 41.4603 -91.2861 323° Northwest 390 449 13,100 -1,790 Descending Chicago Center
Tue 04:14:41 PM 41.5389 -91.3639 323° Northwest 376 433 12,000 -1,161 Descending Chicago Center
Tue 04:15:43 PM 41.6214 -91.4461 323° Northwest 319 367 10,700 -1,694 Descending Chicago Center
Tue 04:16:45 PM 41.6878 -91.5119 323° Northwest 303 349 8,500 -2,323 Descending Chicago Center
Tue 04:17:47 PM 41.7264 -91.5983 301° West 277 319 5,900 -2,419 Descending Chicago Center
Tue 04:18:49 PM 41.7578 -91.6897 295° West 273 314 3,500 -1,645 Descending Chicago Center
Tue 04:19:51 PM 41.7956 -91.7689 303° West 268 308 2,500 -629 Descending Chicago Center
Tue 04:20:53 PM 41.8472 -91.8214 323° Northwest 233 268 2,200 -336 Descending Chicago Center
Tue 04:21:56 PM 41.8847 -91.7981 25° Northeast 190 219 1,800 -432 Descending Chicago Center
Tue 04:22:58 PM 41.8853 -91.7428 89° East 181 208 1,300 -484 Descending Chicago Center
Tue 04:24:00 PM 41.8847 -91.7108 90° East  Level Estimated

Login

Don't have an account? Register now (free) for customized features, flight alerts, and more!